sensor_id;sensor_type;location;lat;lon;timestamp;P1;durP1;ratioP1;P2;durP2;ratioP2
22382;SDS011;11359;45.802;13.530;2023-02-25T00:00:29;11.05;;;8.45;;
22382;SDS011;11359;45.802;13.530;2023-02-25T00:02:55;9.20;;;7.63;;
22382;SDS011;11359;45.802;13.530;2023-02-25T00:05:22;9.98;;;7.45;;
22382;SDS011;11359;45.802;13.530;2023-02-25T00:07:47;8.98;;;7.13;;
22382;SDS011;11359;45.802;13.530;2023-02-25T00:10:14;7.45;;;6.28;;
22382;SDS011;11359;45.802;13.530;2023-02-25T00:12:40;7.50;;;6.10;;
22382;SDS011;11359;45.802;13.530;2023-02-25T00:15:06;7.47;;;5.75;;
22382;SDS011;11359;45.802;13.530;2023-02-25T00:17:32;5.95;;;5.25;;
22382;SDS011;11359;45.802;13.530;2023-02-25T00:19:59;6.22;;;5.30;;
22382;SDS011;11359;45.802;13.530;2023-02-25T00:22:25;6.53;;;5.13;;
22382;SDS011;11359;45.802;13.530;2023-02-25T00:24:55;6.18;;;4.70;;
22382;SDS011;11359;45.802;13.530;2023-02-25T00:27:22;5.40;;;4.43;;
22382;SDS011;11359;45.802;13.530;2023-02-25T00:29:52;6.70;;;5.22;;
22382;SDS011;11359;45.802;13.530;2023-02-25T00:32:19;6.95;;;5.60;;
22382;SDS011;11359;45.802;13.530;2023-02-25T00:34:46;6.60;;;5.47;;
22382;SDS011;11359;45.802;13.530;2023-02-25T00:37:12;5.82;;;5.05;;
22382;SDS011;11359;45.802;13.530;2023-02-25T00:39:39;5.82;;;4.97;;
22382;SDS011;11359;45.802;13.530;2023-02-25T00:42:08;5.63;;;4.88;;
22382;SDS011;11359;45.802;13.530;2023-02-25T00:44:38;6.10;;;4.97;;
22382;SDS011;11359;45.802;13.530;2023-02-25T00:47:04;5.57;;;4.60;;
22382;SDS011;11359;45.802;13.530;2023-02-25T00:49:31;5.43;;;4.57;;
22382;SDS011;11359;45.802;13.530;2023-02-25T00:51:57;5.82;;;4.28;;
22382;SDS011;11359;45.802;13.530;2023-02-25T00:54:23;5.35;;;4.30;;
22382;SDS011;11359;45.802;13.530;2023-02-25T00:56:49;6.25;;;5.20;;
22382;SDS011;11359;45.802;13.530;2023-02-25T00:59:14;6.18;;;5.03;;
22382;SDS011;11359;45.802;13.530;2023-02-25T01:01:40;6.60;;;5.55;;
22382;SDS011;11359;45.802;13.530;2023-02-25T01:04:06;6.93;;;5.43;;
22382;SDS011;11359;45.802;13.530;2023-02-25T01:06:33;5.70;;;5.07;;
22382;SDS011;11359;45.802;13.530;2023-02-25T01:09:00;5.75;;;4.80;;
22382;SDS011;11359;45.802;13.530;2023-02-25T01:11:28;6.13;;;4.90;;
22382;SDS011;11359;45.802;13.530;2023-02-25T01:14:00;6.05;;;5.07;;
22382;SDS011;11359;45.802;13.530;2023-02-25T01:16:28;5.63;;;5.03;;
22382;SDS011;11359;45.802;13.530;2023-02-25T01:18:56;6.60;;;5.32;;
22382;SDS011;11359;45.802;13.530;2023-02-25T01:21:28;5.80;;;4.80;;
22382;SDS011;11359;45.802;13.530;2023-02-25T01:24:03;5.53;;;4.78;;
22382;SDS011;11359;45.802;13.530;2023-02-25T01:26:34;5.38;;;4.57;;
22382;SDS011;11359;45.802;13.530;2023-02-25T01:29:04;5.45;;;4.68;;
22382;SDS011;11359;45.802;13.530;2023-02-25T01:31:32;5.15;;;4.50;;
22382;SDS011;11359;45.802;13.530;2023-02-25T01:33:58;5.22;;;4.20;;
22382;SDS011;11359;45.802;13.530;2023-02-25T01:36:27;4.50;;;3.92;;
22382;SDS011;11359;45.802;13.530;2023-02-25T01:38:53;3.80;;;3.40;;
22382;SDS011;11359;45.802;13.530;2023-02-25T01:41:20;3.78;;;3.33;;
22382;SDS011;11359;45.802;13.530;2023-02-25T01:46:43;3.70;;;3.30;;
22382;SDS011;11359;45.802;13.530;2023-02-25T01:49:15;3.33;;;2.88;;
22382;SDS011;11359;45.802;13.530;2023-02-25T01:51:43;5.72;;;3.55;;
22382;SDS011;11359;45.802;13.530;2023-02-25T01:54:12;4.05;;;3.05;;
22382;SDS011;11359;45.802;13.530;2023-02-25T01:56:39;3.97;;;3.25;;
22382;SDS011;11359;45.802;13.530;2023-02-25T01:59:07;3.80;;;3.00;;
22382;SDS011;11359;45.802;13.530;2023-02-25T02:01:35;3.22;;;2.70;;
22382;SDS011;11359;45.802;13.530;2023-02-25T02:04:02;3.95;;;3.40;;
22382;SDS011;11359;45.802;13.530;2023-02-25T02:06:38;3.88;;;2.95;;
22382;SDS011;11359;45.802;13.530;2023-02-25T02:09:07;3.97;;;3.10;;
22382;SDS011;11359;45.802;13.530;2023-02-25T02:11:37;3.00;;;2.70;;
22382;SDS011;11359;45.802;13.530;2023-02-25T02:14:03;3.65;;;3.17;;
22382;SDS011;11359;45.802;13.530;2023-02-25T02:19:03;4.22;;;2.97;;
22382;SDS011;11359;45.802;13.530;2023-02-25T02:27:00;3.63;;;2.67;;
22382;SDS011;11359;45.802;13.530;2023-02-25T02:29:38;3.70;;;3.00;;
22382;SDS011;11359;45.802;13.530;2023-02-25T02:35:07;2.92;;;2.63;;
22382;SDS011;11359;45.802;13.530;2023-02-25T02:43:08;4.05;;;3.42;;
22382;SDS011;11359;45.802;13.530;2023-02-25T02:45:57;3.50;;;3.20;;
22382;SDS011;11359;45.802;13.530;2023-02-25T02:48:28;3.80;;;3.40;;
22382;SDS011;11359;45.802;13.530;2023-02-25T02:50:59;4.45;;;3.50;;
22382;SDS011;11359;45.802;13.530;2023-02-25T02:53:34;4.22;;;3.47;;
22382;SDS011;11359;45.802;13.530;2023-02-25T02:56:06;3.05;;;2.75;;
22382;SDS011;11359;45.802;13.530;2023-02-25T02:58:43;3.90;;;3.17;;
22382;SDS011;11359;45.802;13.530;2023-02-25T03:01:17;3.40;;;3.03;;
22382;SDS011;11359;45.802;13.530;2023-02-25T03:03:51;3.90;;;3.28;;
22382;SDS011;11359;45.802;13.530;2023-02-25T03:06:42;3.25;;;2.65;;
22382;SDS011;11359;45.802;13.530;2023-02-25T03:09:13;5.15;;;3.63;;
22382;SDS011;11359;45.802;13.530;2023-02-25T03:11:43;4.10;;;3.05;;
22382;SDS011;11359;45.802;13.530;2023-02-25T03:14:12;3.53;;;2.92;;
22382;SDS011;11359;45.802;13.530;2023-02-25T03:19:10;2.72;;;2.47;;
22382;SDS011;11359;45.802;13.530;2023-02-25T03:21:47;3.28;;;2.97;;
22382;SDS011;11359;45.802;13.530;2023-02-25T03:24:18;3.30;;;2.90;;
22382;SDS011;11359;45.802;13.530;2023-02-25T03:26:47;3.78;;;2.97;;
22382;SDS011;11359;45.802;13.530;2023-02-25T03:29:17;3.42;;;3.13;;
22382;SDS011;11359;45.802;13.530;2023-02-25T03:31:47;3.40;;;2.78;;
22382;SDS011;11359;45.802;13.530;2023-02-25T03:34:22;3.60;;;2.80;;
22382;SDS011;11359;45.802;13.530;2023-02-25T03:36:55;3.13;;;2.65;;
22382;SDS011;11359;45.802;13.530;2023-02-25T03:39:25;5.45;;;3.30;;
22382;SDS011;11359;45.802;13.530;2023-02-25T03:41:54;4.07;;;3.50;;
22382;SDS011;11359;45.802;13.530;2023-02-25T03:44:24;4.38;;;3.97;;
22382;SDS011;11359;45.802;13.530;2023-02-25T03:46:57;3.95;;;3.55;;
22382;SDS011;11359;45.802;13.530;2023-02-25T03:49:26;3.75;;;3.28;;
22382;SDS011;11359;45.802;13.530;2023-02-25T03:51:57;3.47;;;3.08;;
22382;SDS011;11359;45.802;13.530;2023-02-25T03:54:25;3.97;;;3.38;;
22382;SDS011;11359;45.802;13.530;2023-02-25T03:56:51;3.25;;;2.90;;
22382;SDS011;11359;45.802;13.530;2023-02-25T03:59:18;3.08;;;2.55;;
22382;SDS011;11359;45.802;13.530;2023-02-25T04:01:45;2.42;;;2.22;;
22382;SDS011;11359;45.802;13.530;2023-02-25T04:04:15;3.10;;;2.20;;
22382;SDS011;11359;45.802;13.530;2023-02-25T04:06:41;2.60;;;2.38;;
22382;SDS011;11359;45.802;13.530;2023-02-25T04:09:07;3.00;;;2.30;;
22382;SDS011;11359;45.802;13.530;2023-02-25T04:11:32;2.70;;;2.20;;
22382;SDS011;11359;45.802;13.530;2023-02-25T04:13:58;2.70;;;2.35;;
22382;SDS011;11359;45.802;13.530;2023-02-25T04:16:24;2.63;;;2.15;;
22382;SDS011;11359;45.802;13.530;2023-02-25T04:18:49;2.70;;;2.10;;
22382;SDS011;11359;45.802;13.530;2023-02-25T04:21:36;2.63;;;2.20;;
22382;SDS011;11359;45.802;13.530;2023-02-25T04:24:02;2.30;;;2.08;;
22382;SDS011;11359;45.802;13.530;2023-02-25T04:26:30;2.55;;;1.90;;
22382;SDS011;11359;45.802;13.530;2023-02-25T04:28:57;2.80;;;2.35;;
22382;SDS011;11359;45.802;13.530;2023-02-25T04:31:23;2.92;;;1.90;;
22382;SDS011;11359;45.802;13.530;2023-02-25T04:33:48;2.00;;;1.80;;
22382;SDS011;11359;45.802;13.530;2023-02-25T04:38:58;2.78;;;2.05;;
22382;SDS011;11359;45.802;13.530;2023-02-25T04:41:28;2.30;;;2.05;;
22382;SDS011;11359;45.802;13.530;2023-02-25T04:43:56;2.47;;;2.20;;
22382;SDS011;11359;45.802;13.530;2023-02-25T04:46:24;2.83;;;2.17;;
22382;SDS011;11359;45.802;13.530;2023-02-25T04:48:50;2.55;;;2.15;;
22382;SDS011;11359;45.802;13.530;2023-02-25T04:51:17;2.72;;;1.90;;
22382;SDS011;11359;45.802;13.530;2023-02-25T04:53:46;2.17;;;1.98;;
22382;SDS011;11359;45.802;13.530;2023-02-25T04:56:11;3.58;;;1.90;;
22382;SDS011;11359;45.802;13.530;2023-02-25T04:58:41;2.63;;;2.20;;
22382;SDS011;11359;45.802;13.530;2023-02-25T05:01:07;2.13;;;1.92;;
22382;SDS011;11359;45.802;13.530;2023-02-25T05:03:33;2.92;;;2.05;;
22382;SDS011;11359;45.802;13.530;2023-02-25T05:05:59;2.10;;;1.67;;
22382;SDS011;11359;45.802;13.530;2023-02-25T05:08:26;2.50;;;2.15;;
22382;SDS011;11359;45.802;13.530;2023-02-25T05:10:52;2.40;;;2.20;;
22382;SDS011;11359;45.802;13.530;2023-02-25T05:13:18;2.50;;;2.10;;
22382;SDS011;11359;45.802;13.530;2023-02-25T05:15:44;2.75;;;2.50;;
22382;SDS011;11359;45.802;13.530;2023-02-25T05:18:10;2.65;;;2.30;;
22382;SDS011;11359;45.802;13.530;2023-02-25T05:20:40;2.25;;;1.98;;
22382;SDS011;11359;45.802;13.530;2023-02-25T05:23:09;2.38;;;1.90;;
22382;SDS011;11359;45.802;13.530;2023-02-25T05:25:35;2.40;;;2.03;;
22382;SDS011;11359;45.802;13.530;2023-02-25T05:28:05;2.58;;;2.22;;
22382;SDS011;11359;45.802;13.530;2023-02-25T05:30:31;1.95;;;1.65;;
22382;SDS011;11359;45.802;13.530;2023-02-25T05:32:57;2.35;;;1.67;;
22382;SDS011;11359;45.802;13.530;2023-02-25T05:35:23;2.03;;;1.80;;
22382;SDS011;11359;45.802;13.530;2023-02-25T05:37:49;1.88;;;1.67;;
22382;SDS011;11359;45.802;13.530;2023-02-25T05:40:15;2.45;;;1.58;;
22382;SDS011;11359;45.802;13.530;2023-02-25T05:42:41;2.15;;;1.85;;
22382;SDS011;11359;45.802;13.530;2023-02-25T05:45:07;2.90;;;2.28;;
22382;SDS011;11359;45.802;13.530;2023-02-25T05:47:34;2.65;;;2.10;;
22382;SDS011;11359;45.802;13.530;2023-02-25T05:50:00;2.30;;;1.98;;
22382;SDS011;11359;45.802;13.530;2023-02-25T05:52:26;2.30;;;1.83;;
22382;SDS011;11359;45.802;13.530;2023-02-25T05:54:51;2.88;;;2.15;;
22382;SDS011;11359;45.802;13.530;2023-02-25T05:57:17;2.30;;;1.85;;
22382;SDS011;11359;45.802;13.530;2023-02-25T05:59:43;2.65;;;2.30;;
22382;SDS011;11359;45.802;13.530;2023-02-25T06:02:09;2.28;;;1.95;;
22382;SDS011;11359;45.802;13.530;2023-02-25T06:04:35;2.75;;;2.33;;
22382;SDS011;11359;45.802;13.530;2023-02-25T06:07:00;2.25;;;1.90;;
22382;SDS011;11359;45.802;13.530;2023-02-25T06:09:27;2.47;;;1.60;;
22382;SDS011;11359;45.802;13.530;2023-02-25T06:11:53;1.95;;;1.70;;
22382;SDS011;11359;45.802;13.530;2023-02-25T06:14:19;2.88;;;1.95;;
22382;SDS011;11359;45.802;13.530;2023-02-25T06:16:44;2.33;;;2.00;;
22382;SDS011;11359;45.802;13.530;2023-02-25T06:19:10;2.40;;;1.90;;
22382;SDS011;11359;45.802;13.530;2023-02-25T06:21:36;2.35;;;1.83;;
22382;SDS011;11359;45.802;13.530;2023-02-25T06:24:02;2.50;;;2.10;;
22382;SDS011;11359;45.802;13.530;2023-02-25T06:26:28;2.25;;;1.83;;
22382;SDS011;11359;45.802;13.530;2023-02-25T06:28:54;2.50;;;2.03;;
22382;SDS011;11359;45.802;13.530;2023-02-25T06:31:21;2.53;;;2.10;;
22382;SDS011;11359;45.802;13.530;2023-02-25T06:33:48;3.28;;;2.40;;
22382;SDS011;11359;45.802;13.530;2023-02-25T06:36:15;2.97;;;1.92;;
22382;SDS011;11359;45.802;13.530;2023-02-25T06:38:42;2.63;;;2.05;;
22382;SDS011;11359;45.802;13.530;2023-02-25T06:41:11;3.45;;;2.50;;
22382;SDS011;11359;45.802;13.530;2023-02-25T06:43:39;2.55;;;2.03;;
22382;SDS011;11359;45.802;13.530;2023-02-25T06:46:06;2.65;;;2.20;;
22382;SDS011;11359;45.802;13.530;2023-02-25T06:48:32;3.40;;;2.58;;
22382;SDS011;11359;45.802;13.530;2023-02-25T06:51:01;2.80;;;2.45;;
22382;SDS011;11359;45.802;13.530;2023-02-25T06:53:32;4.05;;;2.45;;
22382;SDS011;11359;45.802;13.530;2023-02-25T06:56:01;3.40;;;2.85;;
22382;SDS011;11359;45.802;13.530;2023-02-25T06:58:27;3.33;;;2.50;;
22382;SDS011;11359;45.802;13.530;2023-02-25T07:00:53;3.30;;;2.47;;
22382;SDS011;11359;45.802;13.530;2023-02-25T07:03:18;3.25;;;2.35;;
22382;SDS011;11359;45.802;13.530;2023-02-25T07:05:44;2.53;;;1.90;;
22382;SDS011;11359;45.802;13.530;2023-02-25T07:08:10;2.20;;;1.98;;
22382;SDS011;11359;45.802;13.530;2023-02-25T07:10:35;3.38;;;2.17;;
22382;SDS011;11359;45.802;13.530;2023-02-25T07:13:04;2.20;;;2.00;;
22382;SDS011;11359;45.802;13.530;2023-02-25T07:15:33;2.97;;;2.15;;
22382;SDS011;11359;45.802;13.530;2023-02-25T07:18:00;3.25;;;2.22;;
22382;SDS011;11359;45.802;13.530;2023-02-25T07:20:26;2.35;;;2.15;;
22382;SDS011;11359;45.802;13.530;2023-02-25T07:22:52;2.28;;;1.98;;
22382;SDS011;11359;45.802;13.530;2023-02-25T07:25:17;2.17;;;1.90;;
22382;SDS011;11359;45.802;13.530;2023-02-25T07:27:43;1.90;;;1.70;;
22382;SDS011;11359;45.802;13.530;2023-02-25T07:30:10;3.33;;;2.22;;
22382;SDS011;11359;45.802;13.530;2023-02-25T07:32:37;2.38;;;2.17;;
22382;SDS011;11359;45.802;13.530;2023-02-25T07:35:03;3.30;;;2.60;;
22382;SDS011;11359;45.802;13.530;2023-02-25T07:37:29;2.15;;;1.95;;
22382;SDS011;11359;45.802;13.530;2023-02-25T07:39:55;2.28;;;2.03;;
22382;SDS011;11359;45.802;13.530;2023-02-25T07:42:23;2.75;;;2.35;;
22382;SDS011;11359;45.802;13.530;2023-02-25T07:44:51;4.03;;;2.22;;
22382;SDS011;11359;45.802;13.530;2023-02-25T07:47:17;2.80;;;2.20;;
22382;SDS011;11359;45.802;13.530;2023-02-25T07:49:43;2.70;;;2.28;;
22382;SDS011;11359;45.802;13.530;2023-02-25T07:52:09;4.40;;;2.40;;
22382;SDS011;11359;45.802;13.530;2023-02-25T07:54:35;2.85;;;2.13;;
22382;SDS011;11359;45.802;13.530;2023-02-25T07:57:00;2.83;;;2.10;;
22382;SDS011;11359;45.802;13.530;2023-02-25T07:59:27;3.20;;;2.35;;
22382;SDS011;11359;45.802;13.530;2023-02-25T08:01:53;2.72;;;2.10;;
22382;SDS011;11359;45.802;13.530;2023-02-25T08:04:19;2.80;;;2.05;;
22382;SDS011;11359;45.802;13.530;2023-02-25T08:06:44;2.80;;;2.20;;
22382;SDS011;11359;45.802;13.530;2023-02-25T08:09:14;2.40;;;2.03;;
22382;SDS011;11359;45.802;13.530;2023-02-25T08:11:40;3.30;;;2.55;;
22382;SDS011;11359;45.802;13.530;2023-02-25T08:14:06;2.08;;;1.80;;
22382;SDS011;11359;45.802;13.530;2023-02-25T08:16:32;2.42;;;2.00;;
22382;SDS011;11359;45.802;13.530;2023-02-25T08:18:59;2.28;;;2.03;;
22382;SDS011;11359;45.802;13.530;2023-02-25T08:21:26;2.97;;;2.00;;
22382;SDS011;11359;45.802;13.530;2023-02-25T08:23:55;3.67;;;2.63;;
22382;SDS011;11359;45.802;13.530;2023-02-25T08:26:21;2.20;;;1.90;;
22382;SDS011;11359;45.802;13.530;2023-02-25T08:28:49;2.30;;;1.90;;
22382;SDS011;11359;45.802;13.530;2023-02-25T08:31:15;2.50;;;1.85;;
22382;SDS011;11359;45.802;13.530;2023-02-25T08:33:43;3.17;;;2.88;;
22382;SDS011;11359;45.802;13.530;2023-02-25T08:36:17;2.72;;;2.00;;
22382;SDS011;11359;45.802;13.530;2023-02-25T08:38:45;2.72;;;1.85;;
22382;SDS011;11359;45.802;13.530;2023-02-25T08:41:13;2.42;;;1.90;;
22382;SDS011;11359;45.802;13.530;2023-02-25T08:43:39;2.78;;;2.08;;
22382;SDS011;11359;45.802;13.530;2023-02-25T08:46:05;2.28;;;1.90;;
22382;SDS011;11359;45.802;13.530;2023-02-25T08:48:32;2.45;;;1.92;;
22382;SDS011;11359;45.802;13.530;2023-02-25T08:51:02;2.20;;;1.80;;
22382;SDS011;11359;45.802;13.530;2023-02-25T08:53:32;2.55;;;1.90;;
22382;SDS011;11359;45.802;13.530;2023-02-25T08:56:04;2.38;;;2.08;;
22382;SDS011;11359;45.802;13.530;2023-02-25T08:58:31;2.92;;;2.20;;
22382;SDS011;11359;45.802;13.530;2023-02-25T09:00:57;3.35;;;1.90;;
22382;SDS011;11359;45.802;13.530;2023-02-25T09:03:23;2.58;;;2.03;;
22382;SDS011;11359;45.802;13.530;2023-02-25T09:05:49;3.95;;;2.67;;
22382;SDS011;11359;45.802;13.530;2023-02-25T09:08:20;2.80;;;2.17;;
22382;SDS011;11359;45.802;13.530;2023-02-25T09:10:46;2.70;;;2.10;;
22382;SDS011;11359;45.802;13.530;2023-02-25T09:13:12;3.05;;;2.10;;
22382;SDS011;11359;45.802;13.530;2023-02-25T09:15:39;2.38;;;1.90;;
22382;SDS011;11359;45.802;13.530;2023-02-25T09:18:05;2.65;;;2.00;;
22382;SDS011;11359;45.802;13.530;2023-02-25T09:20:31;2.67;;;2.00;;
22382;SDS011;11359;45.802;13.530;2023-02-25T09:22:58;2.58;;;1.65;;
22382;SDS011;11359;45.802;13.530;2023-02-25T09:25:27;2.30;;;1.90;;
22382;SDS011;11359;45.802;13.530;2023-02-25T09:27:54;3.03;;;2.10;;
22382;SDS011;11359;45.802;13.530;2023-02-25T09:30:20;2.40;;;2.08;;
22382;SDS011;11359;45.802;13.530;2023-02-25T09:32:46;2.92;;;2.10;;
22382;SDS011;11359;45.802;13.530;2023-02-25T09:35:12;2.22;;;1.90;;
22382;SDS011;11359;45.802;13.530;2023-02-25T09:37:38;3.45;;;2.60;;
22382;SDS011;11359;45.802;13.530;2023-02-25T09:40:04;3.00;;;2.20;;
22382;SDS011;11359;45.802;13.530;2023-02-25T09:42:38;3.30;;;2.50;;
22382;SDS011;11359;45.802;13.530;2023-02-25T09:45:18;2.47;;;2.20;;
22382;SDS011;11359;45.802;13.530;2023-02-25T09:53:21;3.08;;;2.42;;
22382;SDS011;11359;45.802;13.530;2023-02-25T09:56:04;2.50;;;2.17;;
22382;SDS011;11359;45.802;13.530;2023-02-25T09:58:35;3.25;;;2.70;;
22382;SDS011;11359;45.802;13.530;2023-02-25T10:01:17;2.83;;;2.42;;
22382;SDS011;11359;45.802;13.530;2023-02-25T10:17:19;2.90;;;2.22;;
22382;SDS011;11359;45.802;13.530;2023-02-25T10:26:05;2.35;;;1.98;;
22382;SDS011;11359;45.802;13.530;2023-02-25T10:28:48;3.20;;;2.30;;
22382;SDS011;11359;45.802;13.530;2023-02-25T10:31:19;3.42;;;2.20;;
22382;SDS011;11359;45.802;13.530;2023-02-25T10:33:48;2.75;;;2.10;;
22382;SDS011;11359;45.802;13.530;2023-02-25T10:36:26;2.80;;;2.50;;
22382;SDS011;11359;45.802;13.530;2023-02-25T10:38:58;2.75;;;2.35;;
22382;SDS011;11359;45.802;13.530;2023-02-25T10:41:25;2.60;;;2.10;;
22382;SDS011;11359;45.802;13.530;2023-02-25T10:43:52;2.55;;;2.00;;
22382;SDS011;11359;45.802;13.530;2023-02-25T10:49:15;2.25;;;1.90;;
22382;SDS011;11359;45.802;13.530;2023-02-25T10:54:25;2.47;;;1.92;;
22382;SDS011;11359;45.802;13.530;2023-02-25T10:56:52;3.42;;;2.35;;
22382;SDS011;11359;45.802;13.530;2023-02-25T10:59:26;3.05;;;2.35;;
22382;SDS011;11359;45.802;13.530;2023-02-25T11:02:02;2.40;;;2.20;;
22382;SDS011;11359;45.802;13.530;2023-02-25T11:04:45;2.10;;;1.90;;
22382;SDS011;11359;45.802;13.530;2023-02-25T11:10:10;2.80;;;1.92;;
22382;SDS011;11359;45.802;13.530;2023-02-25T11:12:44;2.60;;;1.98;;
22382;SDS011;11359;45.802;13.530;2023-02-25T11:17:46;2.60;;;1.92;;
22382;SDS011;11359;45.802;13.530;2023-02-25T11:20:25;2.25;;;1.95;;
22382;SDS011;11359;45.802;13.530;2023-02-25T11:22:54;1.92;;;1.73;;
22382;SDS011;11359;45.802;13.530;2023-02-25T11:25:40;2.15;;;1.90;;
22382;SDS011;11359;45.802;13.530;2023-02-25T11:28:17;2.55;;;2.03;;
22382;SDS011;11359;45.802;13.530;2023-02-25T11:31:06;3.17;;;2.20;;
22382;SDS011;11359;45.802;13.530;2023-02-25T11:33:36;2.10;;;1.80;;
22382;SDS011;11359;45.802;13.530;2023-02-25T11:36:06;2.60;;;1.90;;
22382;SDS011;11359;45.802;13.530;2023-02-25T11:38:37;1.70;;;1.60;;
22382;SDS011;11359;45.802;13.530;2023-02-25T11:41:18;2.35;;;1.75;;
22382;SDS011;11359;45.802;13.530;2023-02-25T11:43:46;2.92;;;1.80;;
22382;SDS011;11359;45.802;13.530;2023-02-25T11:46:20;2.00;;;1.80;;
22382;SDS011;11359;45.802;13.530;2023-02-25T11:48:53;3.05;;;2.10;;
22382;SDS011;11359;45.802;13.530;2023-02-25T11:51:44;4.78;;;2.20;;
22382;SDS011;11359;45.802;13.530;2023-02-25T12:08:49;6.28;;;4.68;;
22382;SDS011;11359;45.802;13.530;2023-02-25T12:23:56;13.85;;;10.18;;
22382;SDS011;11359;45.802;13.530;2023-02-25T13:10:38;8.63;;;6.00;;
22382;SDS011;11359;45.802;13.530;2023-02-25T13:13:45;10.77;;;7.35;;
22382;SDS011;11359;45.802;13.530;2023-02-25T13:24:23;5.15;;;4.32;;
22382;SDS011;11359;45.802;13.530;2023-02-25T13:30:23;8.90;;;6.90;;
22382;SDS011;11359;45.802;13.530;2023-02-25T13:43:50;12.68;;;10.43;;
22382;SDS011;11359;45.802;13.530;2023-02-25T13:51:55;7.45;;;5.82;;
22382;SDS011;11359;45.802;13.530;2023-02-25T13:57:10;8.93;;;7.10;;
22382;SDS011;11359;45.802;13.530;2023-02-25T14:18:13;5.20;;;4.13;;
22382;SDS011;11359;45.802;13.530;2023-02-25T14:29:00;4.20;;;3.67;;
22382;SDS011;11359;45.802;13.530;2023-02-25T14:31:54;3.38;;;3.08;;
22382;SDS011;11359;45.802;13.530;2023-02-25T14:45:19;8.25;;;5.65;;
22382;SDS011;11359;45.802;13.530;2023-02-25T14:50:42;5.28;;;4.35;;
22382;SDS011;11359;45.802;13.530;2023-02-25T15:02:45;6.22;;;4.10;;
22382;SDS011;11359;45.802;13.530;2023-02-25T15:05:42;3.50;;;3.00;;
22382;SDS011;11359;45.802;13.530;2023-02-25T15:11:12;3.22;;;2.83;;
22382;SDS011;11359;45.802;13.530;2023-02-25T15:21:38;2.50;;;1.73;;
22382;SDS011;11359;45.802;13.530;2023-02-25T15:24:47;2.47;;;1.95;;
22382;SDS011;11359;45.802;13.530;2023-02-25T15:27:00;2.10;;;1.80;;
22382;SDS011;11359;45.802;13.530;2023-02-25T15:29:47;1.95;;;1.50;;
22382;SDS011;11359;45.802;13.530;2023-02-25T15:32:24;1.70;;;1.40;;
22382;SDS011;11359;45.802;13.530;2023-02-25T15:34:56;1.55;;;1.42;;
22382;SDS011;11359;45.802;13.530;2023-02-25T15:37:36;1.42;;;1.30;;
22382;SDS011;11359;45.802;13.530;2023-02-25T15:48:26;1.40;;;1.20;;
22382;SDS011;11359;45.802;13.530;2023-02-25T15:50:52;1.45;;;1.23;;
22382;SDS011;11359;45.802;13.530;2023-02-25T15:55:49;1.45;;;1.23;;
22382;SDS011;11359;45.802;13.530;2023-02-25T16:14:06;1.45;;;1.30;;
22382;SDS011;11359;45.802;13.530;2023-02-25T16:19:05;2.00;;;1.60;;
22382;SDS011;11359;45.802;13.530;2023-02-25T16:21:45;3.78;;;1.70;;
22382;SDS011;11359;45.802;13.530;2023-02-25T16:24:17;2.80;;;1.65;;
22382;SDS011;11359;45.802;13.530;2023-02-25T16:36:46;2.23;;;1.50;;
22382;SDS011;11359;45.802;13.530;2023-02-25T16:39:42;1.83;;;1.45;;
22382;SDS011;11359;45.802;13.530;2023-02-25T16:42:11;2.35;;;1.38;;
22382;SDS011;11359;45.802;13.530;2023-02-25T16:44:40;1.77;;;1.58;;
22382;SDS011;11359;45.802;13.530;2023-02-25T16:47:25;2.63;;;1.80;;
22382;SDS011;11359;45.802;13.530;2023-02-25T16:49:54;3.30;;;1.92;;
22382;SDS011;11359;45.802;13.530;2023-02-25T16:55:01;2.45;;;1.60;;
22382;SDS011;11359;45.802;13.530;2023-02-25T16:57:32;2.03;;;1.55;;
22382;SDS011;11359;45.802;13.530;2023-02-25T17:00:15;2.00;;;1.45;;
22382;SDS011;11359;45.802;13.530;2023-02-25T17:02:44;1.85;;;1.60;;
22382;SDS011;11359;45.802;13.530;2023-02-25T17:05:22;1.70;;;1.40;;
22382;SDS011;11359;45.802;13.530;2023-02-25T17:08:01;1.60;;;1.45;;
22382;SDS011;11359;45.802;13.530;2023-02-25T17:10:42;1.70;;;1.27;;
22382;SDS011;11359;45.802;13.530;2023-02-25T17:13:22;1.40;;;1.30;;
22382;SDS011;11359;45.802;13.530;2023-02-25T17:16:02;1.77;;;1.63;;
22382;SDS011;11359;45.802;13.530;2023-02-25T17:18:33;2.30;;;1.50;;
22382;SDS011;11359;45.802;13.530;2023-02-25T17:24:14;1.80;;;1.40;;
22382;SDS011;11359;45.802;13.530;2023-02-25T17:26:47;1.58;;;1.48;;
22382;SDS011;11359;45.802;13.530;2023-02-25T17:29:14;1.50;;;1.27;;
22382;SDS011;11359;45.802;13.530;2023-02-25T17:31:46;1.70;;;1.40;;
22382;SDS011;11359;45.802;13.530;2023-02-25T17:34:37;1.63;;;1.38;;
22382;SDS011;11359;45.802;13.530;2023-02-25T17:37:04;2.08;;;1.73;;
22382;SDS011;11359;45.802;13.530;2023-02-25T17:39:33;1.55;;;1.33;;
22382;SDS011;11359;45.802;13.530;2023-02-25T17:41:59;3.28;;;1.60;;
22382;SDS011;11359;45.802;13.530;2023-02-25T17:44:43;2.00;;;1.60;;
22382;SDS011;11359;45.802;13.530;2023-02-25T17:47:11;2.15;;;1.73;;
22382;SDS011;11359;45.802;13.530;2023-02-25T17:49:43;1.77;;;1.30;;
22382;SDS011;11359;45.802;13.530;2023-02-25T17:54:52;1.25;;;1.10;;
22382;SDS011;11359;45.802;13.530;2023-02-25T17:57:25;2.88;;;1.58;;
22382;SDS011;11359;45.802;13.530;2023-02-25T17:59:57;1.92;;;1.52;;
22382;SDS011;11359;45.802;13.530;2023-02-25T18:02:30;2.20;;;1.40;;
22382;SDS011;11359;45.802;13.530;2023-02-25T18:07:37;1.80;;;1.42;;
22382;SDS011;11359;45.802;13.530;2023-02-25T18:12:47;2.13;;;1.48;;
22382;SDS011;11359;45.802;13.530;2023-02-25T18:15:18;2.63;;;1.88;;
22382;SDS011;11359;45.802;13.530;2023-02-25T18:17:58;2.17;;;1.70;;
22382;SDS011;11359;45.802;13.530;2023-02-25T18:20:32;1.70;;;1.60;;
22382;SDS011;11359;45.802;13.530;2023-02-25T18:23:04;2.67;;;2.00;;
22382;SDS011;11359;45.802;13.530;2023-02-25T18:28:15;2.53;;;1.67;;
22382;SDS011;11359;45.802;13.530;2023-02-25T18:30:43;2.20;;;1.65;;
22382;SDS011;11359;45.802;13.530;2023-02-25T18:33:09;2.70;;;1.98;;
22382;SDS011;11359;45.802;13.530;2023-02-25T18:35:36;3.03;;;1.95;;
22382;SDS011;11359;45.802;13.530;2023-02-25T18:38:04;1.90;;;1.60;;
22382;SDS011;11359;45.802;13.530;2023-02-25T18:40:31;2.30;;;1.98;;
22382;SDS011;11359;45.802;13.530;2023-02-25T18:43:00;2.25;;;1.65;;
22382;SDS011;11359;45.802;13.530;2023-02-25T18:45:27;1.92;;;1.40;;
22382;SDS011;11359;45.802;13.530;2023-02-25T18:47:54;1.92;;;1.50;;
22382;SDS011;11359;45.802;13.530;2023-02-25T18:50:24;2.35;;;1.60;;
22382;SDS011;11359;45.802;13.530;2023-02-25T18:52:53;2.05;;;1.48;;
22382;SDS011;11359;45.802;13.530;2023-02-25T18:55:20;1.50;;;1.40;;
22382;SDS011;11359;45.802;13.530;2023-02-25T18:57:49;1.98;;;1.50;;
22382;SDS011;11359;45.802;13.530;2023-02-25T19:00:15;1.33;;;1.23;;
22382;SDS011;11359;45.802;13.530;2023-02-25T19:05:19;1.60;;;1.40;;
22382;SDS011;11359;45.802;13.530;2023-02-25T19:07:46;2.83;;;1.45;;
22382;SDS011;11359;45.802;13.530;2023-02-25T19:10:16;2.38;;;1.75;;
22382;SDS011;11359;45.802;13.530;2023-02-25T19:12:47;2.47;;;1.55;;
22382;SDS011;11359;45.802;13.530;2023-02-25T19:15:15;2.67;;;2.10;;
22382;SDS011;11359;45.802;13.530;2023-02-25T19:17:43;2.33;;;1.85;;
22382;SDS011;11359;45.802;13.530;2023-02-25T19:20:14;3.00;;;1.77;;
22382;SDS011;11359;45.802;13.530;2023-02-25T19:22:45;2.60;;;2.40;;
22382;SDS011;11359;45.802;13.530;2023-02-25T19:27:52;3.00;;;2.42;;
22382;SDS011;11359;45.802;13.530;2023-02-25T19:30:20;3.15;;;2.65;;
22382;SDS011;11359;45.802;13.530;2023-02-25T19:32:49;3.42;;;3.13;;